Weather at St Charles Airport [CLOSED]

Public forecast

Using degrees Fahrenheit for public forecast. Weather courtesy of forecast.io.

Closest aviation weather report (METAR) to St Charles Airport

Closest report is St Charles County Smartt Airport, 5.9 nm (10.9 km) NE. Retrieved 2021/05/11 02:54 UTC (14 minutes ago):

KSET 110254Z AUTO 00000KT 10SM CLR 11/07 A3016 RMK AO2 SLP210 T01110072 53009

Closest aviation forecast (TAF) to St Charles Airport

Closest forecast is St Louis Lambert International Airport, 8.6 nm (15.8 km) SE. Retrieved 2021-05-11 00:30 UTC (3 hours ago):

TAF KSTL 102327Z 1100/1206 VRB04KT P6SM BKN150 FM111400 05010KT P6SM BKN050 BKN100